Flight Track Log - Related Links

Times and Time Zones

All times are in EDT time to prevent confusion due to time zone crossing. See the SWA3963 flight status page for this flight to view local times or setup timezone preferences in your user account.

Time Position Orientation Groundspeed Altitude Reporting Facility
EDT Latitude Longitude Course Direction KTS MPH feet Rate Location/Type
Mon 08:34:45 PM 33.9500 -118.4500 239° Southwest 147 169 1,300  Level Southern California TRACON
Mon 08:35:07 PM 33.9442 -118.4617 239° Southwest 160 184 1,700 1,571 Climbing Los Angeles Center
Mon 08:36:09 PM 33.9403 -118.5403 267° West 242 278 3,500 2,323 Climbing Los Angeles Center
Mon 08:37:11 PM 33.9375 -118.6372 268° West 271 312 6,500 2,661 Climbing Los Angeles Center
Mon 08:38:13 PM 33.9983 -118.6950 322° Northwest 281 323 9,000 1,306 Climbing Los Angeles Center
Mon 08:39:15 PM 34.0789 -118.6797 North 301 346 9,200 1,452 Climbing Los Angeles Center
Mon 08:40:17 PM 34.1511 -118.6350 27° Northeast 297 342 12,000 2,903 Climbing Los Angeles Center
Mon 08:41:19 PM 34.2358 -118.6228 North 315 362 15,200 3,000 Climbing Los Angeles Center
Mon 08:42:21 PM 34.3189 -118.6575 341° North 315 362 18,200 2,613 Climbing Los Angeles Center
Mon 08:43:23 PM 34.4072 -118.6956 340° North 336 387 20,600 1,742 Climbing Los Angeles Center
Mon 08:44:25 PM 34.5086 -118.7381 341° North 392 451 21,800 1,721 Climbing Los Angeles Center
Mon 08:45:39 PM 34.6364 -118.7925 341° North 406 467 24,500 2,426 Climbing Los Angeles Center
Mon 08:46:41 PM 34.7703 -118.8494 341° North 421 484 27,300 2,274 Climbing Los Angeles Center
Mon 08:47:43 PM 34.8683 -118.9261 327° Northwest 422 486 29,200 2,032 Climbing Los Angeles Center
Mon 08:48:45 PM 34.9572 -119.0133 321° Northwest 415 478 31,500 2,081 Climbing Los Angeles Center
Mon 08:49:47 PM 35.0461 -119.1000 321° Northwest 412 474 33,500 1,887 Climbing Los Angeles Center
Mon 08:50:49 PM 35.1361 -119.1856 322° Northwest 411 473 35,400 1,210 Climbing Los Angeles Center
Mon 08:51:51 PM 35.2411 -119.2889 321° Northwest 408 470 36,000 290 Climbing Los Angeles Center
Mon 08:52:53 PM 35.3289 -119.3736 322° Northwest 405 466 36,000  Level Los Angeles Center
Mon 08:53:55 PM 35.4147 -119.4592 321° Northwest 402 463 36,000  Level Los Angeles Center
Mon 08:54:57 PM 35.5017 -119.5461 321° Northwest 404 465 36,000  Level Los Angeles Center
Mon 08:55:59 PM 35.5867 -119.6297 321° Northwest 400 460 36,000  Level Los Angeles Center
Mon 08:56:31 PM 35.6364 -119.6800 321° Northwest 402 463 36,000  Level Oakland Center
Mon 08:57:33 PM 35.7217 -119.7667 320° Northwest 401 461 36,000  Level Oakland Center
Mon 08:58:34 PM 35.8086 -119.8517 322° Northwest 401 461 36,000  Level Oakland Center
Mon 08:59:35 PM 35.9103 -119.9544 321° Northwest 397 457 36,000  Level Oakland Center
Mon 09:00:37 PM 35.9950 -120.0406 321° Northwest 398 458 36,000  Level Oakland Center
Mon 09:01:38 PM 36.0822 -120.1300 320° Northwest 407 468 36,000  Level Oakland Center
Mon 09:02:39 PM 36.1669 -120.2150 321° Northwest 397 457 36,000  Level Oakland Center
Mon 09:03:41 PM 36.2539 -120.3017 321° Northwest 402 463 36,000 -293 Level Oakland Center
Mon 09:04:42 PM 36.3392 -120.3931 319° Northwest 406 467 35,400 -1,574 Descending Oakland Center
Mon 09:05:43 PM 36.4233 -120.4789 321° Northwest 396 456 32,800 -2,439 Descending Oakland Center
Mon 09:06:45 PM 36.5092 -120.5628 322° Northwest 393 452 30,400 -2,439 Descending Oakland Center
Mon 09:07:46 PM 36.6128 -120.6708 320° Northwest 405 466 27,800 -2,361 Descending Oakland Center
Mon 09:08:47 PM 36.7008 -120.7653 319° Northwest 416 479 25,600 -2,146 Descending Oakland Center
Mon 09:09:49 PM 36.7833 -120.8522 320° Northwest 392 451 23,400 -2,000 Descending Oakland Center
Mon 09:10:50 PM 36.8589 -120.9433 316° Northwest 383 441 21,500 -1,902 Descending Oakland Center
Mon 09:11:52 PM 36.9353 -121.0267 319° Northwest 368 423 19,500 -1,854 Descending Oakland Center
Mon 09:12:53 PM 37.0064 -121.1114 316° Northwest 357 411 17,700 -2,066 Descending Oakland Center
Mon 09:13:54 PM 37.0881 -121.2058 317° Northwest 348 400 15,300 -2,000 Descending Oakland Center
Mon 09:14:56 PM 37.1483 -121.2750 318° Northwest 347 399 13,600 -1,805 Descending Oakland Center
Mon 09:15:57 PM 37.2194 -121.3550 318° Northwest 344 396 11,600 -1,770 Descending Oakland Center
Mon 09:16:58 PM 37.2983 -121.4492 316° Northwest 324 373 10,000 -1,366 Descending Oakland Center
Mon 09:18:00 PM 37.3544 -121.5142 317° Northwest 296 341 8,800 -1,101 Descending Oakland Center
Mon 09:18:47 PM 37.4000 -121.5667 318° Northwest 287 330 8,000 -449 Descending Northern Cal TRACON
Mon 09:19:47 PM 37.4667 -121.6333 322° Northwest 286 329 8,000 -450 Level Northern Cal TRACON
Mon 09:20:47 PM 37.5333 -121.7000 322° Northwest 287 330 7,100 -950 Descending Northern Cal TRACON
Mon 09:21:47 PM 37.5667 -121.7667 302° West 265 305 6,100 -800 Descending Northern Cal TRACON
Mon 09:22:47 PM 37.5833 -121.8500 284° West 233 268 5,500 -800 Descending Northern Cal TRACON
Mon 09:23:47 PM 37.6000 -121.9333 284° West 229 264 4,500 -850 Descending Northern Cal TRACON
Mon 09:24:47 PM 37.6000 -122.0000 270° West 218 251 3,800 -843 Descending Northern Cal TRACON
Mon 09:25:48 PM 37.6167 -122.0667 288° West 202 232 2,800 -992 Descending Northern Cal TRACON
Mon 09:26:48 PM 37.6500 -122.1333 302° West 183 211 1,800 -900 Descending Northern Cal TRACON
Mon 09:27:48 PM 37.6667 -122.1667 302° West 136 157 1,000 -750 Descending Northern Cal TRACON
Mon 09:28:48 PM 37.6833 -122.2000 302° West 113 130 300 -700 Descending Northern Cal TRACON
Mon 09:31:00 PM 37.7167 -122.2167 270° West  Level FlightAware Approximate
Mon 09:38:00 PM 37.7213 -122.2207 270° West  Level Estimated

Login

Don't have an account? Register now (free) for customized features, flight alerts, and more!